Tilghman, Maryland
Current Conditions -  °F | °C
As of 1:03 AM on Thursday 18 Dec 2014 (Local Time) from KESN Reporting Station
Clear Clear  
Wind Chill: 31°   Ceiling: Unl
Heat Index: 39°   Visibility: 10mi
Dew Point: 28°   Wind: 14mph
Humidity: 65%   Direction: 320°NW
Pressure: 30.08"   Gusts: 18mph
Location:  38.72°N, 76.33°W
Report Text: KESN 180603Z AUTO 32012G16KT 10SM CLR 04/M02 A3008 RMK AO2 T00381023
Loading
Personal Weather Stations






























Interactive Weather Map New forecast layout! Learn more

10-Day Weather Forecast

Advertisements
Track Severe Weather on mobile